Stations météo

Publicité
Toulon Arsenal, France (7660): Température de l'air & dewpoint: 08.07.2020 17:00:00 - 14.07.2020 17:00:00 (CEST)Toulon Arsenal, France (7660): Vitesse du vent & gusts: 08.07.2020 17:00:00 - 14.07.2020 17:00:00 (CEST)Toulon Arsenal, France (7660): Direction du vent: 08.07.2020 17:00:00 - 14.07.2020 17:00:00 (CEST)Toulon Arsenal, France (7660): reduced air pressure: 08.07.2020 17:00:00 - 14.07.2020 17:00:00 (CEST)Toulon Arsenal, France (7660): Quantités de précipitations: 08.07.2020 17:00:00 - 14.07.2020 17:00:00 (CEST)
Date & Time tt [°C] td [°C] ff [km/h] ff [knt] fx [km/h] fx [knt] dd ppp [hPa] rr [mm]
14.07.2020 17:00:00 - - - - - - - - -
14.07.2020 16:00:00 27,1 14,1 7 4 21 11 S 1013,6 0,0
14.07.2020 15:00:00 26,9 17,7 9 5 20 11 SSE 1014,1 0,0
14.07.2020 14:00:00 26,5 17,6 8 5 20 11 SE 1014,4 0,0
14.07.2020 13:00:00 26,5 18,4 10 5 22 12 SSE 1014,7 0,0
14.07.2020 12:00:00 27,1 16,7 9 5 22 12 SSE 1014,8 0,0
14.07.2020 11:00:00 26,6 15,6 8 4 16 8 SSE 1014,8 0,0
14.07.2020 10:00:00 25,5 14,3 4 2 10 6 ESE 1015,1 0,0
14.07.2020 09:00:00 24,1 15,0 4 2 9 5 SE 1015,1 0,0
14.07.2020 08:00:00 21,9 12,7 3 1 6 3 W 1015,1 0,0
14.07.2020 07:00:00 18,1 11,4 3 2 5 3 NNW 1015,3 0,0
14.07.2020 06:00:00 17,9 11,7 0 0 6 3 N 1015,1 0,0
14.07.2020 05:00:00 18,3 11,1 3 2 6 3 N 1014,9 0,0
14.07.2020 04:00:00 19,3 10,8 3 2 7 4 WNW 1014,8 0,0
14.07.2020 03:00:00 19,4 11,4 3 1 8 4 NNW 1015,3 0,0
14.07.2020 02:00:00 19,9 12,2 3 2 7 4 NW 1015,7 0,0
14.07.2020 01:00:00 20,3 12,0 0 0 5 3 N 1016,0 0,0
14.07.2020 00:00:00 21,4 12,3 0 0 7 4 N 1016,1 0,0
13.07.2020 23:00:00 22,1 15,2 2 1 5 3 N 1016,2 0,0
13.07.2020 22:00:00 23,9 15,4 4 2 11 6 WNW 1016,2 0,0
13.07.2020 21:00:00 25,4 15,4 7 4 13 7 W 1016,2 0,0
13.07.2020 20:00:00 26,8 15,8 8 5 19 10 W 1016,3 0,0
13.07.2020 19:00:00 26,2 16,4 10 5 22 12 S 1016,2 0,0
13.07.2020 18:00:00 27,2 16,5 7 4 19 10 S 1016,4 0,0
13.07.2020 17:00:00 27,5 17,1 8 4 22 12 SSE 1017,0 0,0
13.07.2020 16:00:00 28,2 16,5 8 4 24 13 SE 1017,5 0,0
13.07.2020 15:00:00 28,0 16,6 10 5 22 12 SE 1018,0 0,0
13.07.2020 14:00:00 27,9 16,5 9 5 24 13 SE 1018,2 0,0
13.07.2020 13:00:00 27,1 15,5 16 9 31 17 SE 1018,5 0,0
13.07.2020 12:00:00 27,1 16,1 16 9 30 16 SE 1018,6 0,0
13.07.2020 11:00:00 27,0 16,6 16 9 30 16 SE 1018,4 0,0
13.07.2020 10:00:00 27,4 16,7 5 3 11 6 SSE 1018,5 0,0
13.07.2020 09:00:00 24,8 19,0 4 2 9 5 SSE 1018,5 0,0
13.07.2020 08:00:00 24,8 16,5 0 0 13 7 N 1018,3 0,0
13.07.2020 07:00:00 22,8 16,6 5 3 12 7 E 1018,0 0,0
13.07.2020 06:00:00 21,6 16,3 0 0 7 4 N 1017,8 0,0
13.07.2020 05:00:00 21,5 16,5 2 1 5 3 WNW 1017,8 0,0
13.07.2020 04:00:00 21,3 16,9 0 0 5 3 N 1017,8 0,0
13.07.2020 03:00:00 21,4 17,2 2 1 10 5 W 1018,2 0,0
13.07.2020 02:00:00 22,0 17,6 2 1 6 4 WNW 1018,6 0,0
13.07.2020 01:00:00 22,6 17,9 0 0 10 6 N 1018,9 0,0
13.07.2020 00:00:00 23,2 18,7 3 1 12 7 W 1019,0 0,0
12.07.2020 23:00:00 23,3 19,0 3 1 11 6 NW 1018,2 0,0
12.07.2020 22:00:00 24,8 19,4 5 3 12 6 ESE 1017,5 0,0
12.07.2020 21:00:00 25,4 18,8 4 2 16 9 WSW 1017,9 0,0
12.07.2020 20:00:00 26,1 19,7 5 3 10 6 SSE 1018,0 0,0
12.07.2020 19:00:00 26,5 19,6 5 3 13 7 SSE 1017,8 0,0
12.07.2020 18:00:00 26,7 19,8 9 5 22 12 W 1018,1 0,0
12.07.2020 17:00:00 27,4 20,0 7 4 16 9 SSW 1018,3 0,0
12.07.2020 16:00:00 28,1 19,9 7 4 22 12 S 1018,2 0,0
12.07.2020 15:00:00 27,9 20,5 10 5 24 13 SE 1018,4 0,0
12.07.2020 14:00:00 27,5 20,6 10 5 - - SE 1018,4 0,0
12.07.2020 13:00:00 26,8 19,9 19 10 40 21 SE 1018,0 0,0
12.07.2020 12:00:00 26,3 18,2 16 9 32 17 SE 1017,7 0,0
12.07.2020 11:00:00 25,7 20,5 15 8 26 14 SE 1017,4 0,0
12.07.2020 10:00:00 26,3 19,2 5 3 16 9 SSE 1017,3 0,0
12.07.2020 09:00:00 25,8 18,7 3 2 8 5 S 1016,8 0,0
12.07.2020 08:00:00 23,9 17,9 2 1 5 3 WSW 1016,4 0,0
12.07.2020 07:00:00 20,6 17,4 0 0 5 3 N 1016,1 0,0
12.07.2020 06:00:00 20,3 16,9 2 1 6 4 NW 1015,6 0,0
12.07.2020 05:00:00 20,2 17,0 3 1 5 3 WNW 1015,3 0,0
12.07.2020 04:00:00 21,0 18,8 0 0 8 4 N 1015,2 0,0
12.07.2020 03:00:00 21,9 19,8 3 2 9 5 NNW 1015,4 0,0
12.07.2020 02:00:00 23,1 20,2 4 2 10 6 S 1015,3 0,0
12.07.2020 01:00:00 23,6 21,1 2 1 16 9 SSW 1015,2 0,0
12.07.2020 00:00:00 24,2 21,3 6 4 16 9 E 1014,8 0,0
11.07.2020 23:00:00 26,0 11,4 7 4 26 14 WNW 1014,1 0,0
11.07.2020 22:00:00 27,2 12,0 13 7 44 24 W 1013,2 0,0
11.07.2020 21:00:00 28,8 11,4 21 11 37 20 W 1012,4 0,0
11.07.2020 20:00:00 31,3 11,7 16 9 30 16 W 1012,3 0,0
11.07.2020 19:00:00 32,7 12,3 14 7 37 20 W 1012,1 0,0
11.07.2020 18:00:00 32,5 15,1 18 10 - - WSW 1012,1 0,0
11.07.2020 17:00:00 33,6 12,0 19 11 37 20 W 1012,3 0,0
11.07.2020 16:00:00 31,5 15,9 21 12 43 23 WSW 1012,5 0,0
11.07.2020 15:00:00 30,7 16,7 21 11 45 24 W 1012,9 0,0
11.07.2020 14:00:00 30,1 17,2 20 11 42 23 W 1013,3 0,0
11.07.2020 13:00:00 28,7 17,6 21 12 40 22 WSW 1013,6 0,0
11.07.2020 12:00:00 28,5 17,4 20 11 36 19 WSW 1013,9 0,0
11.07.2020 11:00:00 28,4 17,3 16 9 32 18 W 1014,0 0,0
11.07.2020 10:00:00 27,4 18,1 8 4 16 8 WSW 1014,3 0,0
11.07.2020 09:00:00 25,3 18,2 3 2 8 5 SSE 1014,3 0,0
11.07.2020 08:00:00 24,5 18,4 0 0 7 4 N 1014,1 0,0
11.07.2020 07:00:00 21,4 17,8 2 1 9 5 NNW 1014,0 0,0
11.07.2020 06:00:00 21,6 18,4 3 2 12 6 NW 1013,9 0,0
11.07.2020 05:00:00 22,2 17,6 6 3 16 9 WNW 1013,6 0,0
11.07.2020 04:00:00 22,3 18,5 8 4 13 7 W 1013,8 0,0
11.07.2020 03:00:00 22,1 19,6 4 2 10 5 W 1014,2 0,0
11.07.2020 02:00:00 22,8 19,6 6 3 12 7 WNW 1014,7 0,0
11.07.2020 01:00:00 22,9 19,5 3 2 13 7 NNW 1014,7 0,0
11.07.2020 00:00:00 23,6 19,5 5 3 14 8 SW 1014,5 0,0
10.07.2020 23:00:00 23,6 19,5 9 5 23 13 W 1014,8 0,0
10.07.2020 22:00:00 24,1 19,4 7 4 36 20 NW 1013,5 0,0
10.07.2020 21:00:00 25,3 19,2 12 6 23 13 W 1014,0 0,0
10.07.2020 20:00:00 25,4 19,1 12 7 26 14 W 1014,1 0,0
10.07.2020 19:00:00 25,9 19,5 12 7 28 15 W 1014,5 0,0
10.07.2020 18:00:00 25,4 20,2 15 8 28 15 W 1014,9 0,0
10.07.2020 17:00:00 27,2 19,3 12 6 23 13 SW 1015,0 0,0
10.07.2020 16:00:00 27,4 19,2 12 7 37 20 WSW 1015,4 0,0
10.07.2020 15:00:00 28,2 16,1 9 5 24 13 SSE 1014,5 0,0
10.07.2020 14:00:00 28,7 16,9 10 5 25 13 SSE 1014,8 0,0
10.07.2020 13:00:00 30,4 9,3 9 5 19 10 SW 1015,3 0,0
10.07.2020 12:00:00 29,4 10,5 10 5 22 12 WSW 1016,0 0,0
10.07.2020 11:00:00 28,4 10,1 11 6 23 12 WSW 1016,5 0,0
10.07.2020 10:00:00 27,2 12,0 11 6 22 12 W 1016,6 0,0
10.07.2020 09:00:00 25,7 14,2 8 4 14 7 WSW 1016,3 0,0
10.07.2020 08:00:00 23,2 16,0 7 4 13 7 W 1016,2 0,0
10.07.2020 07:00:00 20,1 16,5 5 3 11 6 WNW 1016,3 0,0
10.07.2020 06:00:00 18,6 14,3 2 1 9 5 NNW 1015,8 0,0
10.07.2020 05:00:00 18,8 15,8 3 2 6 4 WNW 1015,6 0,0
10.07.2020 04:00:00 19,4 16,4 3 2 10 5 NNW 1015,3 0,0
10.07.2020 03:00:00 19,9 16,3 0 0 14 8 N 1015,7 0,0
10.07.2020 02:00:00 21,7 18,1 9 5 18 10 W 1016,5 0,0
10.07.2020 01:00:00 21,8 19,0 13 7 22 12 W 1017,0 0,0
10.07.2020 00:00:00 22,3 19,3 9 5 19 11 WNW 1016,7 0,0
09.07.2020 23:00:00 22,7 19,7 10 5 16 9 W 1016,4 0,0
09.07.2020 22:00:00 23,2 20,0 11 6 23 12 W 1016,3 0,0
09.07.2020 21:00:00 24,2 18,6 11 6 24 13 WSW 1016,1 0,0
09.07.2020 20:00:00 26,1 17,7 12 7 27 15 W 1015,9 0,0
09.07.2020 19:00:00 27,4 18,1 11 6 25 13 WSW 1015,9 0,0
09.07.2020 18:00:00 28,0 16,0 13 7 25 13 W 1016,2 0,0
09.07.2020 17:00:00 29,7 13,5 11 6 24 13 WSW 1016,7 0,0
09.07.2020 16:00:00 28,8 13,1 13 7 25 13 W 1017,1 0,0
09.07.2020 15:00:00 29,0 12,8 13 7 29 16 WSW 1017,5 0,0
09.07.2020 14:00:00 28,7 11,3 15 8 28 15 WSW 1017,8 0,0
09.07.2020 13:00:00 28,1 11,6 13 7 24 13 W 1018,0 0,0
09.07.2020 12:00:00 27,5 10,7 11 6 26 14 WSW 1018,1 0,0
09.07.2020 11:00:00 27,0 8,4 15 8 27 15 W 1018,2 0,0
09.07.2020 10:00:00 26,1 10,7 4 2 9 5 ESE 1017,8 0,0
09.07.2020 09:00:00 23,7 13,6 5 3 10 5 ESE 1016,9 0,0
09.07.2020 08:00:00 23,0 12,0 0 0 7 4 N 1016,5 0,0
09.07.2020 07:00:00 17,4 10,7 2 1 5 3 N 1016,4 0,0
09.07.2020 06:00:00 17,6 10,0 2 1 6 3 NNW 1016,3 0,0
09.07.2020 05:00:00 18,0 10,8 3 2 5 3 NNW 1016,5 0,0
09.07.2020 04:00:00 18,3 10,6 3 1 6 3 NW 1016,9 0,0
09.07.2020 03:00:00 18,9 10,5 3 2 5 3 NNW 1017,0 0,0
09.07.2020 02:00:00 20,6 11,5 3 2 12 6 N 1017,0 0,0
09.07.2020 01:00:00 21,5 13,7 6 4 15 8 W 1017,3 0,0
09.07.2020 00:00:00 22,0 14,4 8 5 17 9 W 1017,4 0,0
08.07.2020 23:00:00 22,8 14,4 9 5 16 9 W 1017,1 0,0
08.07.2020 22:00:00 24,1 12,1 4 2 11 6 W 1016,2 0,0
08.07.2020 21:00:00 26,1 12,9 7 4 14 8 W 1015,8 0,0
08.07.2020 20:00:00 27,8 13,7 7 4 18 10 WSW 1015,7 0,0
08.07.2020 19:00:00 27,3 14,7 10 5 20 11 SSE 1016,0 0,0
08.07.2020 18:00:00 27,6 13,9 8 4 23 12 SSE 1016,5 0,0
08.07.2020 17:00:00 27,8 14,8 9 5 25 14 SSE 1017,0 0,0

tt = Température de l'air
td = dewpoint
ff = Vitesse du vent
fx = gusts
dd = Direction du vent
ppp = reduced air pressure
rr = Quantités de précipitations

stations d'obs. à proximité